Selenka — 9HVO9 — position and weather

sailwx.info

Track history (hours):
 
Tides and Currents Weather Stations Pressure Air Temp Water Temp Dewpoint Dewpoint Depression Visibility Wind Speed Wind Dir Waves Ship Positions

Selenka

Last reported at 2017-Nov-20 00:30 UTC. Time now 2017-Nov-20 21:22 UTC.
Position N 51°19' E 004°18'.

Length 132 m; draft 7.5 m.

Type: Ship (hazmat cat B). MMSI: 249598000.

Date/timePositionNaut miles runAvg speedWind from/ knotsBaromVisibWave heightAir tempDewpointWater temp
2017-Nov-20 00:30N 51°19' E 004°18'0 0.0
2017-Nov-20 00:00N 51°19' E 004°18'0 0.1
2017-Nov-19 23:30N 51°19' E 004°18'2 4.5
2017-Nov-19 23:01N 51°17' E 004°20'2 4.5
2017-Nov-19 22:30N 51°15' E 004°23'0 0.1
2017-Nov-19 21:58N 51°15' E 004°23'0 0.0
2017-Nov-19 21:28N 51°15' E 004°23'0 0.0
2017-Nov-19 20:58N 51°15' E 004°23'0 0.0
2017-Nov-19 20:28N 51°15' E 004°23'0 0.0
2017-Nov-19 19:58N 51°15' E 004°23'0 0.0
2017-Nov-19 19:28N 51°15' E 004°23'0 0.0
2017-Nov-19 18:58N 51°15' E 004°23'0 0.0
2017-Nov-19 18:28N 51°15' E 004°23'0 0.0
2017-Nov-19 17:58N 51°15' E 004°23'0 0.0
2017-Nov-19 17:25N 51°15' E 004°23'0 0.0
2017-Nov-19 16:58N 51°15' E 004°23'0 0.0
2017-Nov-19 16:28N 51°15' E 004°23'0 0.0
2017-Nov-19 15:55N 51°15' E 004°23'0 0.0
2017-Nov-19 15:28N 51°15' E 004°23'0 0.0
2017-Nov-19 14:58N 51°15' E 004°23'0 0.0
2017-Nov-19 14:28N 51°15' E 004°23'0 0.0
2017-Nov-19 13:58N 51°15' E 004°23'0 0.0
2017-Nov-19 13:28N 51°15' E 004°23'0 0.0
2017-Nov-19 12:58N 51°15' E 004°23'0 0.0
2017-Nov-19 12:28N 51°15' E 004°23'0 0.0
2017-Nov-19 11:58N 51°15' E 004°23'0 0.0
2017-Nov-19 11:28N 51°15' E 004°23'0 0.0
2017-Nov-19 10:58N 51°15' E 004°23'0 0.0
2017-Nov-19 10:28N 51°15' E 004°23'0 0.0
2017-Nov-19 09:58N 51°15' E 004°23'0 0.0
2017-Nov-19 09:28N 51°15' E 004°23'0 0.0
2017-Nov-19 08:58N 51°15' E 004°23'0 0.0
2017-Nov-19 08:28N 51°15' E 004°23'0 0.0
2017-Nov-19 07:58N 51°15' E 004°23'0 0.0
2017-Nov-19 07:28N 51°15' E 004°23'0 0.0
2017-Nov-19 06:58N 51°15' E 004°23'0 0.0
2017-Nov-19 06:28N 51°15' E 004°23'0 0.0
2017-Nov-19 05:58N 51°15' E 004°23'0 0.0
2017-Nov-19 05:28N 51°15' E 004°23'0 0.0
2017-Nov-19 04:58N 51°15' E 004°23'0 0.0
2017-Nov-19 04:28N 51°15' E 004°23'0 0.0
2017-Nov-19 03:58N 51°15' E 004°23'0 0.0
2017-Nov-19 03:28N 51°15' E 004°23'0 0.0
2017-Nov-19 02:58N 51°15' E 004°23'0 0.0
2017-Nov-19 02:28N 51°15' E 004°23'0 0.0
2017-Nov-19 01:58N 51°15' E 004°23'0 0.0
2017-Nov-19 01:28N 51°15' E 004°23'0 0.0
2017-Nov-19 00:58N 51°15' E 004°23'0 0.0
2017-Nov-19 00:28N 51°15' E 004°23'0 0.0
2017-Nov-18 23:58N 51°15' E 004°23'0 0.0
2017-Nov-18 23:28N 51°15' E 004°23'0 0.0
2017-Nov-18 22:58N 51°15' E 004°23'0 0.0
2017-Nov-18 22:28N 51°15' E 004°23'0 0.0
2017-Nov-18 21:58N 51°15' E 004°23'0 0.0
2017-Nov-18 21:28N 51°15' E 004°23'0 0.0
2017-Nov-18 20:58N 51°15' E 004°23'0 0.0
2017-Nov-18 20:28N 51°15' E 004°23'1 2.6
2017-Nov-18 20:00N 51°16' E 004°21'1 2.2
2017-Nov-18 19:30N 51°17' E 004°20'0 0.0
2017-Nov-18 19:01N 51°17' E 004°20'2 4.4
2017-Nov-18 18:30N 51°18' E 004°17'2 3.7
2017-Nov-18 18:01N 51°17' E 004°15'0 0.0
2017-Nov-18 17:30N 51°17' E 004°15'1 1.5
2017-Nov-18 17:00N 51°16' E 004°15'0 0.7
2017-Nov-18 16:28N 51°16' E 004°15'0 0.0
2017-Nov-18 15:58N 51°16' E 004°15'0 0.0
2017-Nov-18 15:28N 51°16' E 004°15'0 0.0
2017-Nov-18 14:58N 51°16' E 004°15'0 0.0
2017-Nov-18 14:28N 51°16' E 004°15'0 0.0
2017-Nov-18 13:52N 51°16' E 004°15'0 0.0
2017-Nov-18 13:28N 51°16' E 004°15'0 0.0
2017-Nov-18 12:58N 51°16' E 004°15'0 0.0
2017-Nov-18 12:28N 51°16' E 004°15'0 0.0
2017-Nov-18 11:58N 51°16' E 004°15'0 0.0
2017-Nov-18 11:28N 51°16' E 004°15'0 0.0
2017-Nov-18 10:58N 51°16' E 004°15'0 0.0
2017-Nov-18 10:28N 51°16' E 004°15'0 0.0
2017-Nov-18 09:58N 51°16' E 004°15'0 0.0
2017-Nov-18 09:25N 51°16' E 004°15'0 0.0
2017-Nov-18 08:58N 51°16' E 004°15'0 0.0
2017-Nov-18 08:28N 51°16' E 004°15'0 0.0
2017-Nov-18 07:55N 51°16' E 004°15'0 0.0
2017-Nov-18 07:22N 51°16' E 004°15'0 0.0
2017-Nov-18 06:58N 51°16' E 004°15'0 0.0
2017-Nov-18 06:28N 51°16' E 004°15'0 0.0
2017-Nov-18 05:58N 51°16' E 004°15'0 0.0
2017-Nov-18 05:28N 51°16' E 004°15'0 0.0
2017-Nov-18 04:58N 51°16' E 004°15'0 0.0
2017-Nov-18 04:28N 51°16' E 004°15'0 0.0
2017-Nov-18 03:58N 51°16' E 004°15'0 0.0
2017-Nov-18 03:28N 51°16' E 004°15'0 0.0
2017-Nov-18 02:52N 51°16' E 004°15'0 0.0
2017-Nov-18 02:22N 51°16' E 004°15'0 0.0
2017-Nov-18 01:58N 51°16' E 004°15'0 0.0
2017-Nov-18 01:16N 51°16' E 004°15'0 0.0
2017-Nov-18 00:58N 51°16' E 004°15'0 0.0
2017-Nov-18 00:28N 51°16' E 004°15'0 0.0
2017-Nov-17 23:58N 51°16' E 004°15'0 0.5
2017-Nov-17 23:31N 51°16' E 004°16'1 2.0
2017-Nov-17 23:00N 51°17' E 004°15'0 0.0
2017-Nov-17 22:30N 51°17' E 004°15'1 2.7
2017-Nov-17 22:00N 51°18' E 004°16'510.2
2017-Nov-17 21:30N 51°23' E 004°13'510.2
2017-Nov-17 21:00N 51°22' E 004°05'510.2
2017-Nov-17 20:31N 51°26' E 003°59'611.5
2017-Nov-17 20:00N 51°21' E 003°53'510.4
2017-Nov-17 19:30N 51°22' E 003°45'510.1
2017-Nov-17 19:00N 51°26' E 003°40'5 9.4
2017-Nov-17 18:30N 51°25' E 003°33'4 8.0
2017-Nov-17 18:00N 51°25' E 003°26'5 9.1
2017-Nov-17 17:31N 51°24' E 003°19'4 7.3
2017-Nov-17 17:00N 51°24' E 003°13'5 9.1
2017-Nov-17 16:30N 51°24' E 003°06'510.0
2017-Nov-17 16:01N 51°25' E 002°58'511.0
2017-Nov-17 15:30N 51°30' E 003°03'611.5
2017-Nov-17 15:00N 51°34' E 003°09'610.8
2017-Nov-17 14:26N 51°40' E 003°12'4 9.1
2017-Nov-17 14:00N 51°44' E 003°15'3 0.4
2017-Nov-17 06:08N 51°46' E 003°12'218 8.1
2017-Nov-16 03:09N 54°07' E 007°48'212.9
2017-Nov-16 03:00N 54°06' E 007°50'612.9
2017-Nov-16 02:30N 54°03' E 007°60'612.9
2017-Nov-16 02:00N 54°01' E 008°10'612.9
2017-Nov-16 01:31N 53°60' E 008°21'815.0
2017-Nov-16 01:00N 53°58' E 008°33'713.6
2017-Nov-16 00:30N 53°54' E 008°42'611.8
2017-Nov-16 00:00N 53°50' E 008°50'611.1
2017-Nov-15 23:30N 53°51' E 008°60'510.1
2017-Nov-15 23:01N 53°53' E 009°08'1 1.3
2017-Nov-15 22:25N 53°54' E 009°09'0 0.0
2017-Nov-15 21:58N 53°54' E 009°09'1 1.1
2017-Nov-15 21:30N 53°54' E 009°09'1 1.3
2017-Nov-15 21:00N 53°54' E 009°10'0 0.0
2017-Nov-15 20:30N 53°54' E 009°10'0 0.6
2017-Nov-15 20:01N 53°55' E 009°11'3 5.4
2017-Nov-15 19:31N 53°57' E 009°14'4 8.1
2017-Nov-15 19:00N 53°60' E 009°18'3 5.7
2017-Nov-15 18:30N 54°03' E 009°18'3 6.0
2017-Nov-15 18:00N 54°06' E 009°20'4 7.6
2017-Nov-15 17:30N 54°09' E 009°22'3 5.1
2017-Nov-15 17:00N 54°10' E 009°26'0 0.0
2017-Nov-15 16:31N 54°10' E 009°26'2 4.2
2017-Nov-15 16:01N 54°11' E 009°29'4 8.0
2017-Nov-15 15:31N 54°13' E 009°35'4 8.2
2017-Nov-15 15:00N 54°17' E 009°38'4 7.1
2017-Nov-15 14:30N 54°19' E 009°43'4 8.1
2017-Nov-15 14:00N 54°22' E 009°48'15 3.4
2017-Nov-15 09:43N 54°25' E 010°12'312.0
2017-Nov-15 09:27N 54°28' E 010°15'510.3
2017-Nov-15 09:00N 54°31' E 010°21'611.8
2017-Nov-15 08:30N 54°33' E 010°30'611.9
2017-Nov-15 08:00N 54°35' E 010°40'611.7
2017-Nov-15 07:30N 54°36' E 010°50'611.8
2017-Nov-15 07:00N 54°36' E 010°60'611.2
2017-Nov-15 06:30N 54°36' E 011°10'611.3
2017-Nov-15 06:00N 54°34' E 011°19'611.4
2017-Nov-15 05:30N 54°31' E 011°27'611.0
2017-Nov-15 05:00N 54°29' E 011°36'611.2
2017-Nov-15 04:30N 54°27' E 011°45'611.9
2017-Nov-15 04:00N 54°26' E 011°55'612.1
2017-Nov-15 03:30N 54°27' E 012°05'510.8
2017-Nov-15 03:00N 54°31' E 012°11'712.0
2017-Nov-15 02:25N 54°37' E 012°15'712.4
2017-Nov-15 01:50N 54°41' E 012°26'912.3
2017-Nov-15 01:04N 54°46' E 012°39'112.3
2017-Nov-15 00:59N 54°47' E 012°41'4212.1
2017-Nov-14 21:32N 55°01' E 013°50'311.6
2017-Nov-14 21:19N 55°02' E 013°54'511.3
2017-Nov-14 20:50N 55°04' E 014°02'411.2
2017-Nov-14 20:30N 55°07' E 014°07'611.5
2017-Nov-14 20:00N 55°11' E 014°13'611.3
2017-Nov-14 19:30N 55°16' E 014°19'611.3
2017-Nov-14 19:00N 55°20' E 014°25'611.1
2017-Nov-14 18:30N 55°24' E 014°31'710.9
2017-Nov-14 17:53N 55°29' E 014°40'410.6
2017-Nov-14 17:30N 55°31' E 014°46'510.4
2017-Nov-14 17:00N 55°33' E 014°55'510.2
2017-Nov-14 16:30N 55°36' E 015°02'510.6
2017-Nov-14 16:00N 55°39' E 015°10'510.4
2017-Nov-14 15:30N 55°41' E 015°18'510.5
2017-Nov-14 15:00N 55°44' E 015°26'510.9
2017-Nov-14 14:30N 55°47' E 015°35'611.1
2017-Nov-14 14:00N 55°50' E 015°43'611.4
2017-Nov-14 13:30N 55°53' E 015°52'611.6
2017-Nov-14 13:00N 55°56' E 016°01'611.8
2017-Nov-14 12:30N 55°58' E 016°10'611.8
2017-Nov-14 12:00N 56°01' E 016°20'611.7
2017-Nov-14 11:30N 56°04' E 016°29'612.0
2017-Nov-14 11:00N 56°07' E 016°38'611.9
2017-Nov-14 10:30N 56°11' E 016°46'611.9
2017-Nov-14 10:00N 56°14' E 016°55'37811.8
2017-Nov-13 02:00N 60°09' E 026°17'611.5
2017-Nov-13 01:30N 60°13' E 026°24'510.4
2017-Nov-13 01:00N 60°17' E 026°31'612.0
2017-Nov-13 00:30N 60°21' E 026°40'612.0
2017-Nov-13 00:00N 60°24' E 026°51'3 5.3
2017-Nov-12 23:28N 60°26' E 026°55'0 0.0
2017-Nov-12 22:58N 60°26' E 026°55'0 0.0
2017-Nov-12 22:28N 60°26' E 026°55'0 0.0
2017-Nov-12 21:58N 60°26' E 026°55'0 0.0
2017-Nov-12 21:28N 60°26' E 026°55'0 0.0
2017-Nov-12 20:59N 60°26' E 026°55'0 0.0
2017-Nov-12 20:28N 60°26' E 026°55'0 0.0
2017-Nov-12 20:01N 60°26' E 026°55'0 0.0
2017-Nov-12 19:28N 60°26' E 026°55'0 0.0
2017-Nov-12 18:58N 60°26' E 026°55'0 0.0
2017-Nov-12 18:28N 60°26' E 026°55'0 0.0
2017-Nov-12 17:58N 60°26' E 026°55'0 0.0
2017-Nov-12 17:28N 60°26' E 026°55'0 0.0
2017-Nov-12 16:58N 60°26' E 026°55'0 0.0
2017-Nov-12 16:31N 60°26' E 026°55'0 0.0
2017-Nov-12 15:58N 60°26' E 026°55'0 0.0
2017-Nov-12 15:28N 60°26' E 026°55'0 0.0
2017-Nov-12 14:58N 60°26' E 026°55'0 0.0
2017-Nov-12 14:28N 60°26' E 026°55'0 0.0
2017-Nov-12 13:58N 60°26' E 026°55'0 0.0
2017-Nov-12 13:28N 60°26' E 026°55'0 0.0
2017-Nov-12 12:58N 60°26' E 026°55'0 0.0
2017-Nov-12 12:28N 60°26' E 026°55'0 0.0
2017-Nov-12 11:58N 60°26' E 026°55'0 0.0
2017-Nov-12 11:28N 60°26' E 026°55'0 0.0
2017-Nov-12 10:58N 60°26' E 026°55'0 0.0
2017-Nov-12 10:28N 60°26' E 026°55'0 0.0
2017-Nov-12 09:58N 60°26' E 026°55'0 0.0
2017-Nov-12 09:28N 60°26' E 026°55'0 0.0
2017-Nov-12 09:01N 60°26' E 026°55'0 0.0
2017-Nov-12 08:31N 60°26' E 026°55'0 0.0
2017-Nov-12 07:58N 60°26' E 026°55'0 0.0
2017-Nov-12 07:28N 60°26' E 026°55'0 0.0
2017-Nov-12 06:58N 60°26' E 026°55'0 0.0
2017-Nov-12 06:28N 60°26' E 026°55'0 0.0
2017-Nov-12 05:58N 60°26' E 026°55'0 0.0
2017-Nov-12 05:25N 60°26' E 026°55'0 0.0
2017-Nov-12 04:58N 60°26' E 026°55'0 0.0
2017-Nov-12 04:28N 60°26' E 026°55'0 0.0
2017-Nov-12 03:58N 60°26' E 026°55'0 0.0
2017-Nov-12 03:28N 60°26' E 026°55'0 0.0
2017-Nov-12 02:58N 60°26' E 026°55'0 0.0
2017-Nov-12 02:28N 60°26' E 026°55'0 0.0
2017-Nov-12 01:58N 60°26' E 026°55'0 0.0
2017-Nov-12 01:28N 60°26' E 026°55'0 0.0
2017-Nov-12 00:58N 60°26' E 026°55'0 0.0
2017-Nov-12 00:28N 60°26' E 026°55'0 0.0
2017-Nov-11 23:58N 60°26' E 026°55'0 0.0
2017-Nov-11 23:28N 60°26' E 026°55'0 0.0
2017-Nov-11 22:58N 60°26' E 026°55'0 0.0
2017-Nov-11 22:28N 60°26' E 026°55'0 0.0
2017-Nov-11 21:58N 60°26' E 026°55'0 0.0
2017-Nov-11 21:28N 60°26' E 026°55'0 0.0
2017-Nov-11 20:58N 60°26' E 026°55'0 0.3
2017-Nov-11 20:30N 60°26' E 026°55'3 5.3
2017-Nov-11 20:01N 60°24' E 026°51'612.0
2017-Nov-11 19:30N 60°21' E 026°40'612.3
2017-Nov-11 19:01N 60°17' E 026°31'611.9
2017-Nov-11 18:30N 60°13' E 026°24'612.2
2017-Nov-11 18:00N 60°07' E 026°18'2311.6
2017-Nov-11 16:02N 59°52' E 025°43'012.8
2017-Nov-11 16:00N 59°52' E 025°42'712.6
2017-Nov-11 15:29N 59°51' E 025°29'612.9
2017-Nov-11 15:00N 59°50' E 025°17'612.8
2017-Nov-11 14:30N 59°49' E 025°05'612.7
2017-Nov-11 14:00N 59°47' E 024°53'612.4
2017-Nov-11 13:31N 59°45' E 024°41'612.0
2017-Nov-11 13:00N 59°43' E 024°30'612.7
2017-Nov-11 12:30N 59°42' E 024°17'612.7
2017-Nov-11 12:00N 59°40' E 024°05'611.9
2017-Nov-11 11:29N 59°38' E 023°54'611.7
2017-Nov-11 11:00N 59°36' E 023°43'611.8
2017-Nov-11 10:30N 59°34' E 023°32'611.3
2017-Nov-11 10:00N 59°32' E 023°22'611.8
2017-Nov-11 09:30N 59°30' E 023°11'66 2.8
2017-Nov-10 09:40N 59°23' E 021°01'210.4
2017-Nov-10 09:30N 59°25' E 021°03'510.1
2017-Nov-10 09:00N 59°29' E 021°08'510.0
2017-Nov-10 08:30N 59°34' E 021°13'5 9.9
2017-Nov-10 08:00N 59°38' E 021°17'5 9.6
2017-Nov-10 07:30N 59°42' E 021°21'510.1
2017-Nov-10 07:00N 59°47' E 021°20'510.5
2017-Nov-10 06:30N 59°52' E 021°26'611.8
2017-Nov-10 06:00N 59°55' E 021°36'611.2
2017-Nov-10 05:30N 59°60' E 021°42'611.7
2017-Nov-10 05:00N 60°06' E 021°42'711.4
2017-Nov-10 04:21N 60°13' E 021°43'  
Track history (hours):
 
Tides and Currents Weather Stations Pressure Air Temp Water Temp Dewpoint Dewpoint Depression Visibility Wind Speed Wind Dir Waves Ship Positions

Selenka

Last reported at 2017-Nov-20 00:30 UTC. Time now 2017-Nov-20 21:22 UTC.
Position N 51°19' E 004°18'.

Length 132 m; draft 7.5 m.

Type: Ship (hazmat cat B). MMSI: 249598000.

Date/timePositionNaut miles runAvg speedWind from/ knotsBaromVisibWave heightAir tempDewpointWater temp
2017-Nov-20 00:30N 51°19' E 004°18'0 0.0
2017-Nov-20 00:00N 51°19' E 004°18'0 0.1
2017-Nov-19 23:30N 51°19' E 004°18'2 4.5
2017-Nov-19 23:01N 51°17' E 004°20'2 4.5
2017-Nov-19 22:30N 51°15' E 004°23'0 0.1
2017-Nov-19 21:58N 51°15' E 004°23'0 0.0
2017-Nov-19 21:28N 51°15' E 004°23'0 0.0
2017-Nov-19 20:58N 51°15' E 004°23'0 0.0
2017-Nov-19 20:28N 51°15' E 004°23'0 0.0
2017-Nov-19 19:58N 51°15' E 004°23'0 0.0
2017-Nov-19 19:28N 51°15' E 004°23'0 0.0
2017-Nov-19 18:58N 51°15' E 004°23'0 0.0
2017-Nov-19 18:28N 51°15' E 004°23'0 0.0
2017-Nov-19 17:58N 51°15' E 004°23'0 0.0
2017-Nov-19 17:25N 51°15' E 004°23'0 0.0
2017-Nov-19 16:58N 51°15' E 004°23'0 0.0
2017-Nov-19 16:28N 51°15' E 004°23'0 0.0
2017-Nov-19 15:55N 51°15' E 004°23'0 0.0
2017-Nov-19 15:28N 51°15' E 004°23'0 0.0
2017-Nov-19 14:58N 51°15' E 004°23'0 0.0
2017-Nov-19 14:28N 51°15' E 004°23'0 0.0
2017-Nov-19 13:58N 51°15' E 004°23'0 0.0
2017-Nov-19 13:28N 51°15' E 004°23'0 0.0
2017-Nov-19 12:58N 51°15' E 004°23'0 0.0
2017-Nov-19 12:28N 51°15' E 004°23'0 0.0
2017-Nov-19 11:58N 51°15' E 004°23'0 0.0
2017-Nov-19 11:28N 51°15' E 004°23'0 0.0
2017-Nov-19 10:58N 51°15' E 004°23'0 0.0
2017-Nov-19 10:28N 51°15' E 004°23'0 0.0
2017-Nov-19 09:58N 51°15' E 004°23'0 0.0
2017-Nov-19 09:28N 51°15' E 004°23'0 0.0
2017-Nov-19 08:58N 51°15' E 004°23'0 0.0
2017-Nov-19 08:28N 51°15' E 004°23'0 0.0
2017-Nov-19 07:58N 51°15' E 004°23'0 0.0
2017-Nov-19 07:28N 51°15' E 004°23'0 0.0
2017-Nov-19 06:58N 51°15' E 004°23'0 0.0
2017-Nov-19 06:28N 51°15' E 004°23'0 0.0
2017-Nov-19 05:58N 51°15' E 004°23'0 0.0
2017-Nov-19 05:28N 51°15' E 004°23'0 0.0
2017-Nov-19 04:58N 51°15' E 004°23'0 0.0
2017-Nov-19 04:28N 51°15' E 004°23'0 0.0
2017-Nov-19 03:58N 51°15' E 004°23'0 0.0
2017-Nov-19 03:28N 51°15' E 004°23'0 0.0
2017-Nov-19 02:58N 51°15' E 004°23'0 0.0
2017-Nov-19 02:28N 51°15' E 004°23'0 0.0
2017-Nov-19 01:58N 51°15' E 004°23'0 0.0
2017-Nov-19 01:28N 51°15' E 004°23'0 0.0
2017-Nov-19 00:58N 51°15' E 004°23'0 0.0
2017-Nov-19 00:28N 51°15' E 004°23'0 0.0
2017-Nov-18 23:58N 51°15' E 004°23'0 0.0
2017-Nov-18 23:28N 51°15' E 004°23'0 0.0
2017-Nov-18 22:58N 51°15' E 004°23'0 0.0
2017-Nov-18 22:28N 51°15' E 004°23'0 0.0
2017-Nov-18 21:58N 51°15' E 004°23'0 0.0
2017-Nov-18 21:28N 51°15' E 004°23'0 0.0
2017-Nov-18 20:58N 51°15' E 004°23'0 0.0
2017-Nov-18 20:28N 51°15' E 004°23'1 2.6
2017-Nov-18 20:00N 51°16' E 004°21'1 2.2
2017-Nov-18 19:30N 51°17' E 004°20'0 0.0
2017-Nov-18 19:01N 51°17' E 004°20'2 4.4
2017-Nov-18 18:30N 51°18' E 004°17'2 3.7
2017-Nov-18 18:01N 51°17' E 004°15'0 0.0
2017-Nov-18 17:30N 51°17' E 004°15'1 1.5
2017-Nov-18 17:00N 51°16' E 004°15'0 0.7
2017-Nov-18 16:28N 51°16' E 004°15'0 0.0
2017-Nov-18 15:58N 51°16' E 004°15'0 0.0
2017-Nov-18 15:28N 51°16' E 004°15'0 0.0
2017-Nov-18 14:58N 51°16' E 004°15'0 0.0
2017-Nov-18 14:28N 51°16' E 004°15'0 0.0
2017-Nov-18 13:52N 51°16' E 004°15'0 0.0
2017-Nov-18 13:28N 51°16' E 004°15'0 0.0
2017-Nov-18 12:58N 51°16' E 004°15'0 0.0
2017-Nov-18 12:28N 51°16' E 004°15'0 0.0
2017-Nov-18 11:58N 51°16' E 004°15'0 0.0
2017-Nov-18 11:28N 51°16' E 004°15'0 0.0
2017-Nov-18 10:58N 51°16' E 004°15'0 0.0
2017-Nov-18 10:28N 51°16' E 004°15'0 0.0
2017-Nov-18 09:58N 51°16' E 004°15'0 0.0
2017-Nov-18 09:25N 51°16' E 004°15'0 0.0
2017-Nov-18 08:58N 51°16' E 004°15'0 0.0
2017-Nov-18 08:28N 51°16' E 004°15'0 0.0
2017-Nov-18 07:55N 51°16' E 004°15'0 0.0
2017-Nov-18 07:22N 51°16' E 004°15'0 0.0
2017-Nov-18 06:58N 51°16' E 004°15'0 0.0
2017-Nov-18 06:28N 51°16' E 004°15'0 0.0
2017-Nov-18 05:58N 51°16' E 004°15'0 0.0
2017-Nov-18 05:28N 51°16' E 004°15'0 0.0
2017-Nov-18 04:58N 51°16' E 004°15'0 0.0
2017-Nov-18 04:28N 51°16' E 004°15'0 0.0
2017-Nov-18 03:58N 51°16' E 004°15'0 0.0
2017-Nov-18 03:28N 51°16' E 004°15'0 0.0
2017-Nov-18 02:52N 51°16' E 004°15'0 0.0
2017-Nov-18 02:22N 51°16' E 004°15'0 0.0
2017-Nov-18 01:58N 51°16' E 004°15'0 0.0
2017-Nov-18 01:16N 51°16' E 004°15'0 0.0
2017-Nov-18 00:58N 51°16' E 004°15'0 0.0
2017-Nov-18 00:28N 51°16' E 004°15'0 0.0
2017-Nov-17 23:58N 51°16' E 004°15'0 0.5
2017-Nov-17 23:31N 51°16' E 004°16'1 2.0
2017-Nov-17 23:00N 51°17' E 004°15'0 0.0
2017-Nov-17 22:30N 51°17' E 004°15'1 2.7
2017-Nov-17 22:00N 51°18' E 004°16'510.2
2017-Nov-17 21:30N 51°23' E 004°13'510.2
2017-Nov-17 21:00N 51°22' E 004°05'510.2
2017-Nov-17 20:31N 51°26' E 003°59'611.5
2017-Nov-17 20:00N 51°21' E 003°53'510.4
2017-Nov-17 19:30N 51°22' E 003°45'510.1
2017-Nov-17 19:00N 51°26' E 003°40'5 9.4
2017-Nov-17 18:30N 51°25' E 003°33'4 8.0
2017-Nov-17 18:00N 51°25' E 003°26'5 9.1
2017-Nov-17 17:31N 51°24' E 003°19'4 7.3
2017-Nov-17 17:00N 51°24' E 003°13'5 9.1
2017-Nov-17 16:30N 51°24' E 003°06'510.0
2017-Nov-17 16:01N 51°25' E 002°58'511.0
2017-Nov-17 15:30N 51°30' E 003°03'611.5
2017-Nov-17 15:00N 51°34' E 003°09'610.8
2017-Nov-17 14:26N 51°40' E 003°12'4 9.1
2017-Nov-17 14:00N 51°44' E 003°15'3 0.4
2017-Nov-17 06:08N 51°46' E 003°12'218 8.1
2017-Nov-16 03:09N 54°07' E 007°48'212.9
2017-Nov-16 03:00N 54°06' E 007°50'612.9
2017-Nov-16 02:30N 54°03' E 007°60'612.9
2017-Nov-16 02:00N 54°01' E 008°10'612.9
2017-Nov-16 01:31N 53°60' E 008°21'815.0
2017-Nov-16 01:00N 53°58' E 008°33'713.6
2017-Nov-16 00:30N 53°54' E 008°42'611.8
2017-Nov-16 00:00N 53°50' E 008°50'611.1
2017-Nov-15 23:30N 53°51' E 008°60'510.1
2017-Nov-15 23:01N 53°53' E 009°08'1 1.3
2017-Nov-15 22:25N 53°54' E 009°09'0 0.0
2017-Nov-15 21:58N 53°54' E 009°09'1 1.1
2017-Nov-15 21:30N 53°54' E 009°09'1 1.3
2017-Nov-15 21:00N 53°54' E 009°10'0 0.0
2017-Nov-15 20:30N 53°54' E 009°10'0 0.6
2017-Nov-15 20:01N 53°55' E 009°11'3 5.4
2017-Nov-15 19:31N 53°57' E 009°14'4 8.1
2017-Nov-15 19:00N 53°60' E 009°18'3 5.7
2017-Nov-15 18:30N 54°03' E 009°18'3 6.0
2017-Nov-15 18:00N 54°06' E 009°20'4 7.6
2017-Nov-15 17:30N 54°09' E 009°22'3 5.1
2017-Nov-15 17:00N 54°10' E 009°26'0 0.0
2017-Nov-15 16:31N 54°10' E 009°26'2 4.2
2017-Nov-15 16:01N 54°11' E 009°29'4 8.0
2017-Nov-15 15:31N 54°13' E 009°35'4 8.2
2017-Nov-15 15:00N 54°17' E 009°38'4 7.1
2017-Nov-15 14:30N 54°19' E 009°43'4 8.1
2017-Nov-15 14:00N 54°22' E 009°48'15 3.4
2017-Nov-15 09:43N 54°25' E 010°12'312.0
2017-Nov-15 09:27N 54°28' E 010°15'510.3
2017-Nov-15 09:00N 54°31' E 010°21'611.8
2017-Nov-15 08:30N 54°33' E 010°30'611.9
2017-Nov-15 08:00N 54°35' E 010°40'611.7
2017-Nov-15 07:30N 54°36' E 010°50'611.8
2017-Nov-15 07:00N 54°36' E 010°60'611.2
2017-Nov-15 06:30N 54°36' E 011°10'611.3
2017-Nov-15 06:00N 54°34' E 011°19'611.4
2017-Nov-15 05:30N 54°31' E 011°27'611.0
2017-Nov-15 05:00N 54°29' E 011°36'611.2
2017-Nov-15 04:30N 54°27' E 011°45'611.9
2017-Nov-15 04:00N 54°26' E 011°55'612.1
2017-Nov-15 03:30N 54°27' E 012°05'510.8
2017-Nov-15 03:00N 54°31' E 012°11'712.0
2017-Nov-15 02:25N 54°37' E 012°15'712.4
2017-Nov-15 01:50N 54°41' E 012°26'912.3
2017-Nov-15 01:04N 54°46' E 012°39'112.3
2017-Nov-15 00:59N 54°47' E 012°41'4212.1
2017-Nov-14 21:32N 55°01' E 013°50'311.6
2017-Nov-14 21:19N 55°02' E 013°54'511.3
2017-Nov-14 20:50N 55°04' E 014°02'411.2
2017-Nov-14 20:30N 55°07' E 014°07'611.5
2017-Nov-14 20:00N 55°11' E 014°13'611.3
2017-Nov-14 19:30N 55°16' E 014°19'611.3
2017-Nov-14 19:00N 55°20' E 014°25'611.1
2017-Nov-14 18:30N 55°24' E 014°31'710.9
2017-Nov-14 17:53N 55°29' E 014°40'410.6
2017-Nov-14 17:30N 55°31' E 014°46'510.4
2017-Nov-14 17:00N 55°33' E 014°55'510.2
2017-Nov-14 16:30N 55°36' E 015°02'510.6
2017-Nov-14 16:00N 55°39' E 015°10'510.4
2017-Nov-14 15:30N 55°41' E 015°18'510.5
2017-Nov-14 15:00N 55°44' E 015°26'510.9
2017-Nov-14 14:30N 55°47' E 015°35'611.1
2017-Nov-14 14:00N 55°50' E 015°43'611.4
2017-Nov-14 13:30N 55°53' E 015°52'611.6
2017-Nov-14 13:00N 55°56' E 016°01'611.8
2017-Nov-14 12:30N 55°58' E 016°10'611.8
2017-Nov-14 12:00N 56°01' E 016°20'611.7
2017-Nov-14 11:30N 56°04' E 016°29'612.0
2017-Nov-14 11:00N 56°07' E 016°38'611.9
2017-Nov-14 10:30N 56°11' E 016°46'611.9
2017-Nov-14 10:00N 56°14' E 016°55'37811.8
2017-Nov-13 02:00N 60°09' E 026°17'611.5
2017-Nov-13 01:30N 60°13' E 026°24'510.4
2017-Nov-13 01:00N 60°17' E 026°31'612.0
2017-Nov-13 00:30N 60°21' E 026°40'612.0
2017-Nov-13 00:00N 60°24' E 026°51'3 5.3
2017-Nov-12 23:28N 60°26' E 026°55'0 0.0
2017-Nov-12 22:58N 60°26' E 026°55'0 0.0
2017-Nov-12 22:28N 60°26' E 026°55'0 0.0
2017-Nov-12 21:58N 60°26' E 026°55'0 0.0
2017-Nov-12 21:28N 60°26' E 026°55'0 0.0
2017-Nov-12 20:59N 60°26' E 026°55'0 0.0
2017-Nov-12 20:28N 60°26' E 026°55'0 0.0
2017-Nov-12 20:01N 60°26' E 026°55'0 0.0
2017-Nov-12 19:28N 60°26' E 026°55'0 0.0
2017-Nov-12 18:58N 60°26' E 026°55'0 0.0
2017-Nov-12 18:28N 60°26' E 026°55'0 0.0
2017-Nov-12 17:58N 60°26' E 026°55'0 0.0
2017-Nov-12 17:28N 60°26' E 026°55'0 0.0
2017-Nov-12 16:58N 60°26' E 026°55'0 0.0
2017-Nov-12 16:31N 60°26' E 026°55'0 0.0
2017-Nov-12 15:58N 60°26' E 026°55'0 0.0
2017-Nov-12 15:28N 60°26' E 026°55'0 0.0
2017-Nov-12 14:58N 60°26' E 026°55'0 0.0
2017-Nov-12 14:28N 60°26' E 026°55'0 0.0
2017-Nov-12 13:58N 60°26' E 026°55'0 0.0
2017-Nov-12 13:28N 60°26' E 026°55'0 0.0
2017-Nov-12 12:58N 60°26' E 026°55'0 0.0
2017-Nov-12 12:28N 60°26' E 026°55'0 0.0
2017-Nov-12 11:58N 60°26' E 026°55'0 0.0
2017-Nov-12 11:28N 60°26' E 026°55'0 0.0
2017-Nov-12 10:58N 60°26' E 026°55'0 0.0
2017-Nov-12 10:28N 60°26' E 026°55'0 0.0
2017-Nov-12 09:58N 60°26' E 026°55'0 0.0
2017-Nov-12 09:28N 60°26' E 026°55'0 0.0
2017-Nov-12 09:01N 60°26' E 026°55'0 0.0
2017-Nov-12 08:31N 60°26' E 026°55'0 0.0
2017-Nov-12 07:58N 60°26' E 026°55'0 0.0
2017-Nov-12 07:28N 60°26' E 026°55'0 0.0
2017-Nov-12 06:58N 60°26' E 026°55'0 0.0
2017-Nov-12 06:28N 60°26' E 026°55'0 0.0
2017-Nov-12 05:58N 60°26' E 026°55'0 0.0
2017-Nov-12 05:25N 60°26' E 026°55'0 0.0
2017-Nov-12 04:58N 60°26' E 026°55'0 0.0
2017-Nov-12 04:28N 60°26' E 026°55'0 0.0
2017-Nov-12 03:58N 60°26' E 026°55'0 0.0
2017-Nov-12 03:28N 60°26' E 026°55'0 0.0
2017-Nov-12 02:58N 60°26' E 026°55'0 0.0
2017-Nov-12 02:28N 60°26' E 026°55'0 0.0
2017-Nov-12 01:58N 60°26' E 026°55'0 0.0
2017-Nov-12 01:28N 60°26' E 026°55'0 0.0
2017-Nov-12 00:58N 60°26' E 026°55'0 0.0
2017-Nov-12 00:28N 60°26' E 026°55'0 0.0
2017-Nov-11 23:58N 60°26' E 026°55'0 0.0
2017-Nov-11 23:28N 60°26' E 026°55'0 0.0
2017-Nov-11 22:58N 60°26' E 026°55'0 0.0
2017-Nov-11 22:28N 60°26' E 026°55'0 0.0
2017-Nov-11 21:58N 60°26' E 026°55'0 0.0
2017-Nov-11 21:28N 60°26' E 026°55'0 0.0
2017-Nov-11 20:58N 60°26' E 026°55'0 0.3
2017-Nov-11 20:30N 60°26' E 026°55'3 5.3
2017-Nov-11 20:01N 60°24' E 026°51'612.0
2017-Nov-11 19:30N 60°21' E 026°40'612.3
2017-Nov-11 19:01N 60°17' E 026°31'611.9
2017-Nov-11 18:30N 60°13' E 026°24'612.2
2017-Nov-11 18:00N 60°07' E 026°18'2311.6
2017-Nov-11 16:02N 59°52' E 025°43'012.8
2017-Nov-11 16:00N 59°52' E 025°42'712.6
2017-Nov-11 15:29N 59°51' E 025°29'612.9
2017-Nov-11 15:00N 59°50' E 025°17'612.8
2017-Nov-11 14:30N 59°49' E 025°05'612.7
2017-Nov-11 14:00N 59°47' E 024°53'612.4
2017-Nov-11 13:31N 59°45' E 024°41'612.0
2017-Nov-11 13:00N 59°43' E 024°30'612.7
2017-Nov-11 12:30N 59°42' E 024°17'612.7
2017-Nov-11 12:00N 59°40' E 024°05'611.9
2017-Nov-11 11:29N 59°38' E 023°54'611.7
2017-Nov-11 11:00N 59°36' E 023°43'611.8
2017-Nov-11 10:30N 59°34' E 023°32'611.3
2017-Nov-11 10:00N 59°32' E 023°22'611.8
2017-Nov-11 09:30N 59°30' E 023°11'66 2.8
2017-Nov-10 09:40N 59°23' E 021°01'210.4
2017-Nov-10 09:30N 59°25' E 021°03'510.1
2017-Nov-10 09:00N 59°29' E 021°08'510.0
2017-Nov-10 08:30N 59°34' E 021°13'5 9.9
2017-Nov-10 08:00N 59°38' E 021°17'5 9.6
2017-Nov-10 07:30N 59°42' E 021°21'510.1
2017-Nov-10 07:00N 59°47' E 021°20'510.5
2017-Nov-10 06:30N 59°52' E 021°26'611.8
2017-Nov-10 06:00N 59°55' E 021°36'611.2
2017-Nov-10 05:30N 59°60' E 021°42'611.7
2017-Nov-10 05:00N 60°06' E 021°42'711.4
2017-Nov-10 04:21N 60°13' E 021°43'  

Dump ship's entire track history